sensor_id;sensor_type;location;lat;lon;timestamp;pressure;altitude;pressure_sealevel;temperature;humidity
7335;BME280;3708;42.632;23.378;2023-06-22T00:00:00;94771.06;;;24.32;46.19
7335;BME280;3708;42.632;23.378;2023-06-22T00:02:28;94762.31;;;24.17;46.04
7335;BME280;3708;42.632;23.378;2023-06-22T00:04:55;94760.88;;;24.06;46.37
7335;BME280;3708;42.632;23.378;2023-06-22T00:07:22;94761.66;;;23.99;47.06
7335;BME280;3708;42.632;23.378;2023-06-22T00:09:49;94765.47;;;24.05;47.01
7335;BME280;3708;42.632;23.378;2023-06-22T00:12:16;94765.47;;;24.02;47.31
7335;BME280;3708;42.632;23.378;2023-06-22T00:14:43;94754.06;;;23.91;47.46
7335;BME280;3708;42.632;23.378;2023-06-22T00:17:09;94747.94;;;23.90;47.34
7335;BME280;3708;42.632;23.378;2023-06-22T00:19:38;94744.94;;;23.85;47.57
7335;BME280;3708;42.632;23.378;2023-06-22T00:22:05;94747.22;;;23.83;47.91
7335;BME280;3708;42.632;23.378;2023-06-22T00:24:32;94744.16;;;23.84;48.00
7335;BME280;3708;42.632;23.378;2023-06-22T00:26:59;94748.03;;;23.73;48.12
7335;BME280;3708;42.632;23.378;2023-06-22T00:29:26;94740.47;;;23.54;48.68
7335;BME280;3708;42.632;23.378;2023-06-22T00:31:53;94734.00;;;23.47;48.98
7335;BME280;3708;42.632;23.378;2023-06-22T00:34:20;94734.38;;;23.57;48.72
7335;BME280;3708;42.632;23.378;2023-06-22T00:36:48;94730.16;;;23.48;49.08
7335;BME280;3708;42.632;23.378;2023-06-22T00:39:17;94730.94;;;23.53;49.06
7335;BME280;3708;42.632;23.378;2023-06-22T00:41:44;94726.72;;;23.55;49.15
7335;BME280;3708;42.632;23.378;2023-06-22T00:44:11;94725.16;;;23.58;49.00
7335;BME280;3708;42.632;23.378;2023-06-22T00:46:37;94722.88;;;23.60;48.96
7335;BME280;3708;42.632;23.378;2023-06-22T00:49:04;94722.94;;;23.53;48.60
7335;BME280;3708;42.632;23.378;2023-06-22T00:51:32;94731.78;;;23.35;48.39
7335;BME280;3708;42.632;23.378;2023-06-22T00:54:00;94732.53;;;23.18;48.84
7335;BME280;3708;42.632;23.378;2023-06-22T00:56:27;94725.00;;;22.71;50.22
7335;BME280;3708;42.632;23.378;2023-06-22T00:58:55;94733.00;;;22.57;50.67
7335;BME280;3708;42.632;23.378;2023-06-22T01:01:23;94728.81;;;22.56;51.11
7335;BME280;3708;42.632;23.378;2023-06-22T01:03:50;94718.16;;;22.59;51.43
7335;BME280;3708;42.632;23.378;2023-06-22T01:06:21;94725.78;;;22.29;52.62
7335;BME280;3708;42.632;23.378;2023-06-22T01:08:58;94731.47;;;22.14;53.09
7335;BME280;3708;42.632;23.378;2023-06-22T01:11:33;94734.50;;;22.19;53.25
7335;BME280;3708;42.632;23.378;2023-06-22T01:14:06;94729.16;;;22.09;53.71
7335;BME280;3708;42.632;23.378;2023-06-22T01:16:39;94727.25;;;22.13;53.83
7335;BME280;3708;42.632;23.378;2023-06-22T01:19:20;94726.88;;;22.11;54.08
7335;BME280;3708;42.632;23.378;2023-06-22T01:21:53;94728.81;;;22.21;53.89
7335;BME280;3708;42.632;23.378;2023-06-22T01:24:24;94737.56;;;22.04;54.48
7335;BME280;3708;42.632;23.378;2023-06-22T01:27:00;94736.03;;;22.10;54.46
7335;BME280;3708;42.632;23.378;2023-06-22T01:29:33;94736.00;;;21.95;54.64
7335;BME280;3708;42.632;23.378;2023-06-22T01:32:02;94749.72;;;21.97;54.64
7335;BME280;3708;42.632;23.378;2023-06-22T01:34:31;94748.56;;;21.84;55.05
7335;BME280;3708;42.632;23.378;2023-06-22T01:36:59;94755.06;;;21.90;55.01
7335;BME280;3708;42.632;23.378;2023-06-22T01:39:26;94749.28;;;21.78;55.43
7335;BME280;3708;42.632;23.378;2023-06-22T01:41:54;94748.19;;;21.89;55.04
7335;BME280;3708;42.632;23.378;2023-06-22T01:44:21;94752.38;;;21.87;55.25
7335;BME280;3708;42.632;23.378;2023-06-22T01:46:50;94746.59;;;21.74;55.99
7335;BME280;3708;42.632;23.378;2023-06-22T01:49:18;94758.13;;;21.92;55.79
7335;BME280;3708;42.632;23.378;2023-06-22T01:51:44;94752.78;;;21.92;55.87
7335;BME280;3708;42.632;23.378;2023-06-22T01:54:12;94755.03;;;21.87;55.99
7335;BME280;3708;42.632;23.378;2023-06-22T01:56:39;94756.94;;;21.93;56.02
7335;BME280;3708;42.632;23.378;2023-06-22T01:59:10;94755.81;;;21.98;55.77
7335;BME280;3708;42.632;23.378;2023-06-22T02:01:42;94747.47;;;22.14;55.35
7335;BME280;3708;42.632;23.378;2023-06-22T02:04:17;94753.22;;;22.23;54.84
7335;BME280;3708;42.632;23.378;2023-06-22T02:06:47;94762.72;;;22.24;54.79
7335;BME280;3708;42.632;23.378;2023-06-22T02:09:19;94766.56;;;22.30;54.59
7335;BME280;3708;42.632;23.378;2023-06-22T02:11:50;94763.53;;;22.42;54.08
7335;BME280;3708;42.632;23.378;2023-06-22T02:14:20;94768.84;;;22.42;53.29
7335;BME280;3708;42.632;23.378;2023-06-22T02:16:48;94761.22;;;22.47;52.82
7335;BME280;3708;42.632;23.378;2023-06-22T02:19:17;94756.66;;;22.48;52.95
7335;BME280;3708;42.632;23.378;2023-06-22T02:21:49;94750.16;;;22.52;52.92
7335;BME280;3708;42.632;23.378;2023-06-22T02:24:15;94742.19;;;22.63;52.80
7335;BME280;3708;42.632;23.378;2023-06-22T02:26:43;94746.38;;;22.71;52.69
7335;BME280;3708;42.632;23.378;2023-06-22T02:29:11;94752.47;;;22.82;52.58
7335;BME280;3708;42.632;23.378;2023-06-22T02:31:37;94760.47;;;22.89;52.04
7335;BME280;3708;42.632;23.378;2023-06-22T02:34:04;94749.41;;;22.91;51.95
7335;BME280;3708;42.632;23.378;2023-06-22T02:36:33;94753.59;;;22.88;51.77
7335;BME280;3708;42.632;23.378;2023-06-22T02:39:00;94748.25;;;22.88;51.65
7335;BME280;3708;42.632;23.378;2023-06-22T02:41:29;94750.53;;;22.86;51.64
7335;BME280;3708;42.632;23.378;2023-06-22T02:43:55;94748.66;;;22.87;51.61
7335;BME280;3708;42.632;23.378;2023-06-22T02:46:22;94762.00;;;22.83;51.51
7335;BME280;3708;42.632;23.378;2023-06-22T02:48:49;94755.91;;;22.79;51.77
7335;BME280;3708;42.632;23.378;2023-06-22T02:51:16;94757.81;;;22.82;51.66
7335;BME280;3708;42.632;23.378;2023-06-22T02:53:44;94758.19;;;22.84;51.50
7335;BME280;3708;42.632;23.378;2023-06-22T02:56:11;94764.69;;;22.90;51.54
7335;BME280;3708;42.632;23.378;2023-06-22T02:58:38;94765.81;;;22.96;51.38
7335;BME280;3708;42.632;23.378;2023-06-22T03:01:05;94765.06;;;22.92;51.34
7335;BME280;3708;42.632;23.378;2023-06-22T03:03:32;94762.78;;;22.87;50.90
7335;BME280;3708;42.632;23.378;2023-06-22T03:05:59;94768.13;;;22.77;51.06
7335;BME280;3708;42.632;23.378;2023-06-22T03:08:27;94764.31;;;22.81;50.97
7335;BME280;3708;42.632;23.378;2023-06-22T03:10:56;94776.50;;;22.82;51.37
7335;BME280;3708;42.632;23.378;2023-06-22T03:13:23;94763.16;;;22.96;51.36
7335;BME280;3708;42.632;23.378;2023-06-22T03:15:50;94764.28;;;23.02;51.44
7335;BME280;3708;42.632;23.378;2023-06-22T03:18:18;94774.19;;;23.09;51.16
7335;BME280;3708;42.632;23.378;2023-06-22T03:20:44;94779.16;;;23.07;51.07
7335;BME280;3708;42.632;23.378;2023-06-22T03:23:11;94777.59;;;23.16;50.99
7335;BME280;3708;42.632;23.378;2023-06-22T03:25:38;94790.19;;;23.23;50.98
7335;BME280;3708;42.632;23.378;2023-06-22T03:28:06;94787.50;;;23.23;50.70
7335;BME280;3708;42.632;23.378;2023-06-22T03:30:33;94787.13;;;23.28;50.88
7335;BME280;3708;42.632;23.378;2023-06-22T03:33:00;94786.34;;;23.27;50.64
7335;BME280;3708;42.632;23.378;2023-06-22T03:35:27;94789.81;;;23.17;50.62
7335;BME280;3708;42.632;23.378;2023-06-22T03:37:53;94797.81;;;23.21;50.81
7335;BME280;3708;42.632;23.378;2023-06-22T03:40:20;94798.94;;;23.27;50.78
7335;BME280;3708;42.632;23.378;2023-06-22T03:42:48;94801.25;;;23.25;50.70
7335;BME280;3708;42.632;23.378;2023-06-22T03:45:16;94795.16;;;23.38;50.32
7335;BME280;3708;42.632;23.378;2023-06-22T03:47:43;94795.53;;;23.33;50.73
7335;BME280;3708;42.632;23.378;2023-06-22T03:50:10;94798.59;;;23.28;50.99
7335;BME280;3708;42.632;23.378;2023-06-22T03:52:37;94809.28;;;23.21;51.04
7335;BME280;3708;42.632;23.378;2023-06-22T03:55:04;94800.50;;;23.24;51.83
7335;BME280;3708;42.632;23.378;2023-06-22T03:57:31;94804.31;;;23.30;51.77
7335;BME280;3708;42.632;23.378;2023-06-22T03:59:58;94805.84;;;23.35;51.43
7335;BME280;3708;42.632;23.378;2023-06-22T04:02:26;94805.84;;;23.38;51.09
7335;BME280;3708;42.632;23.378;2023-06-22T04:04:53;94808.47;;;23.49;50.69
7335;BME280;3708;42.632;23.378;2023-06-22T04:07:20;94813.09;;;23.41;50.49
7335;BME280;3708;42.632;23.378;2023-06-22T04:09:47;94819.19;;;23.45;50.70
7335;BME280;3708;42.632;23.378;2023-06-22T04:12:14;94819.56;;;23.55;50.79
7335;BME280;3708;42.632;23.378;2023-06-22T04:14:41;94817.25;;;23.53;50.43
7335;BME280;3708;42.632;23.378;2023-06-22T04:17:08;94814.13;;;23.83;49.87
7335;BME280;3708;42.632;23.378;2023-06-22T04:19:36;94804.53;;;23.89;49.70
7335;BME280;3708;42.632;23.378;2023-06-22T04:22:03;94811.06;;;23.81;49.98
7335;BME280;3708;42.632;23.378;2023-06-22T04:24:32;94801.47;;;23.83;50.36
7335;BME280;3708;42.632;23.378;2023-06-22T04:26:59;94804.50;;;23.96;50.36
7335;BME280;3708;42.632;23.378;2023-06-22T04:29:28;94793.69;;;24.20;50.04
7335;BME280;3708;42.632;23.378;2023-06-22T04:31:55;94784.75;;;24.41;49.63
7335;BME280;3708;42.632;23.378;2023-06-22T04:34:24;94781.94;;;24.62;49.44
7335;BME280;3708;42.632;23.378;2023-06-22T04:36:54;94779.94;;;24.73;48.79
7335;BME280;3708;42.632;23.378;2023-06-22T04:39:21;94772.66;;;24.77;48.52
7335;BME280;3708;42.632;23.378;2023-06-22T04:41:48;94777.16;;;24.87;48.44
7335;BME280;3708;42.632;23.378;2023-06-22T04:44:17;94771.31;;;24.96;48.41
7335;BME280;3708;42.632;23.378;2023-06-22T04:46:50;94781.94;;;25.07;48.35
7335;BME280;3708;42.632;23.378;2023-06-22T04:49:20;94783.78;;;25.17;48.45
7335;BME280;3708;42.632;23.378;2023-06-22T04:51:47;94781.34;;;25.29;48.31
7335;BME280;3708;42.632;23.378;2023-06-22T04:54:15;94777.66;;;25.13;48.73
7335;BME280;3708;42.632;23.378;2023-06-22T04:56:42;94787.00;;;25.01;49.26
7335;BME280;3708;42.632;23.378;2023-06-22T04:59:12;94791.22;;;24.98;48.99
7335;BME280;3708;42.632;23.378;2023-06-22T05:01:39;94795.94;;;24.84;48.78
7335;BME280;3708;42.632;23.378;2023-06-22T05:04:06;94797.72;;;25.01;48.75
7335;BME280;3708;42.632;23.378;2023-06-22T05:06:34;94805.34;;;25.03;49.10
7335;BME280;3708;42.632;23.378;2023-06-22T05:09:01;94807.53;;;25.15;48.81
7335;BME280;3708;42.632;23.378;2023-06-22T05:11:30;94807.19;;;25.09;49.47
7335;BME280;3708;42.632;23.378;2023-06-22T05:13:57;94809.66;;;24.89;50.01
7335;BME280;3708;42.632;23.378;2023-06-22T05:16:24;94802.09;;;25.22;49.30
7335;BME280;3708;42.632;23.378;2023-06-22T05:18:52;94793.28;;;25.25;48.44
7335;BME280;3708;42.632;23.378;2023-06-22T05:21:22;94800.25;;;24.67;48.90
7335;BME280;3708;42.632;23.378;2023-06-22T05:23:49;94799.25;;;24.47;49.33
7335;BME280;3708;42.632;23.378;2023-06-22T05:26:16;94804.16;;;24.52;48.28
7335;BME280;3708;42.632;23.378;2023-06-22T05:28:44;94809.72;;;24.82;47.52
7335;BME280;3708;42.632;23.378;2023-06-22T05:31:12;94812.03;;;25.25;47.31
7335;BME280;3708;42.632;23.378;2023-06-22T05:33:40;94810.84;;;25.66;46.81
7335;BME280;3708;42.632;23.378;2023-06-22T05:36:06;94819.75;;;25.90;46.55
7335;BME280;3708;42.632;23.378;2023-06-22T05:38:33;94822.94;;;26.15;46.19
7335;BME280;3708;42.632;23.378;2023-06-22T05:41:00;94833.31;;;26.43;45.81
7335;BME280;3708;42.632;23.378;2023-06-22T05:43:27;94831.59;;;26.57;45.19
7335;BME280;3708;42.632;23.378;2023-06-22T05:45:55;94828.66;;;26.48;45.19
7335;BME280;3708;42.632;23.378;2023-06-22T05:48:22;94836.59;;;26.81;45.29
7335;BME280;3708;42.632;23.378;2023-06-22T05:50:49;94845.78;;;27.07;45.05
7335;BME280;3708;42.632;23.378;2023-06-22T05:53:16;94845.06;;;27.06;43.96
7335;BME280;3708;42.632;23.378;2023-06-22T05:55:43;94847.34;;;26.81;45.47
7335;BME280;3708;42.632;23.378;2023-06-22T05:58:09;94848.81;;;26.86;46.79
7335;BME280;3708;42.632;23.378;2023-06-22T06:00:36;94846.97;;;27.06;46.13
7335;BME280;3708;42.632;23.378;2023-06-22T06:03:06;94835.88;;;27.27;45.83
7335;BME280;3708;42.632;23.378;2023-06-22T06:05:34;94832.00;;;27.28;46.13
7335;BME280;3708;42.632;23.378;2023-06-22T06:08:01;94838.56;;;27.04;46.24
7335;BME280;3708;42.632;23.378;2023-06-22T06:10:28;94845.50;;;27.25;45.43
7335;BME280;3708;42.632;23.378;2023-06-22T06:12:56;94835.16;;;27.23;46.26
7335;BME280;3708;42.632;23.378;2023-06-22T06:15:23;94828.41;;;27.35;46.39
7335;BME280;3708;42.632;23.378;2023-06-22T06:17:50;94818.06;;;27.56;45.95
7335;BME280;3708;42.632;23.378;2023-06-22T06:20:20;94816.16;;;27.76;45.17
7335;BME280;3708;42.632;23.378;2023-06-22T06:22:48;94822.78;;;27.91;45.31
7335;BME280;3708;42.632;23.378;2023-06-22T06:25:15;94817.59;;;28.20;45.20
7335;BME280;3708;42.632;23.378;2023-06-22T06:27:42;94821.16;;;27.55;45.41
7335;BME280;3708;42.632;23.378;2023-06-22T06:30:10;94818.56;;;27.51;45.66
7335;BME280;3708;42.632;23.378;2023-06-22T06:32:38;94822.41;;;27.70;46.05
7335;BME280;3708;42.632;23.378;2023-06-22T06:35:06;94819.84;;;28.06;45.33
7335;BME280;3708;42.632;23.378;2023-06-22T06:37:36;94819.47;;;28.04;45.41
7335;BME280;3708;42.632;23.378;2023-06-22T06:40:04;94822.97;;;28.20;45.23
7335;BME280;3708;42.632;23.378;2023-06-22T06:42:33;94824.03;;;28.42;43.92
7335;BME280;3708;42.632;23.378;2023-06-22T06:45:00;94817.66;;;28.17;42.48
7335;BME280;3708;42.632;23.378;2023-06-22T06:47:27;94811.72;;;28.61;41.21
7335;BME280;3708;42.632;23.378;2023-06-22T06:49:54;94804.16;;;28.72;40.52
7335;BME280;3708;42.632;23.378;2023-06-22T06:52:20;94810.88;;;29.12;40.15
7335;BME280;3708;42.632;23.378;2023-06-22T06:54:49;94804.97;;;29.01;39.61
7335;BME280;3708;42.632;23.378;2023-06-22T06:57:17;94802.88;;;29.25;40.08
7335;BME280;3708;42.632;23.378;2023-06-22T06:59:44;94802.31;;;29.46;40.45
7335;BME280;3708;42.632;23.378;2023-06-22T07:02:11;94797.31;;;29.61;40.08
7335;BME280;3708;42.632;23.378;2023-06-22T07:04:37;94799.66;;;29.87;40.05
7335;BME280;3708;42.632;23.378;2023-06-22T07:07:04;94807.16;;;30.08;39.27
7335;BME280;3708;42.632;23.378;2023-06-22T07:09:31;94798.50;;;30.01;38.70
7335;BME280;3708;42.632;23.378;2023-06-22T07:12:00;94808.88;;;30.02;38.91
7335;BME280;3708;42.632;23.378;2023-06-22T07:14:26;94815.13;;;29.87;38.88
7335;BME280;3708;42.632;23.378;2023-06-22T07:16:54;94807.03;;;28.81;40.26
7335;BME280;3708;42.632;23.378;2023-06-22T07:19:24;94802.44;;;29.10;40.25
7335;BME280;3708;42.632;23.378;2023-06-22T07:21:52;94801.94;;;29.31;41.01
7335;BME280;3708;42.632;23.378;2023-06-22T07:24:19;94806.56;;;29.76;41.44
7335;BME280;3708;42.632;23.378;2023-06-22T07:26:46;94808.25;;;30.11;41.86
7335;BME280;3708;42.632;23.378;2023-06-22T07:29:16;94803.25;;;29.84;42.63
7335;BME280;3708;42.632;23.378;2023-06-22T07:31:44;94812.16;;;30.23;41.90
7335;BME280;3708;42.632;23.378;2023-06-22T07:34:11;94804.41;;;30.37;42.03
7335;BME280;3708;42.632;23.378;2023-06-22T07:36:38;94803.44;;;30.69;41.48
7335;BME280;3708;42.632;23.378;2023-06-22T07:39:05;94801.84;;;30.97;39.62
7335;BME280;3708;42.632;23.378;2023-06-22T07:41:32;94808.94;;;31.16;39.20
7335;BME280;3708;42.632;23.378;2023-06-22T07:43:59;94801.41;;;31.32;39.35
7335;BME280;3708;42.632;23.378;2023-06-22T07:46:27;94809.84;;;31.34;39.13
7335;BME280;3708;42.632;23.378;2023-06-22T07:48:55;94809.72;;;31.50;38.84
7335;BME280;3708;42.632;23.378;2023-06-22T07:51:22;94813.25;;;31.60;37.06
7335;BME280;3708;42.632;23.378;2023-06-22T07:53:49;94810.22;;;31.80;36.81
7335;BME280;3708;42.632;23.378;2023-06-22T07:56:16;94810.69;;;31.78;36.19
7335;BME280;3708;42.632;23.378;2023-06-22T07:58:44;94812.13;;;31.70;36.68
7335;BME280;3708;42.632;23.378;2023-06-22T08:01:11;94810.44;;;31.64;36.69
7335;BME280;3708;42.632;23.378;2023-06-22T08:03:39;94804.34;;;30.41;36.90
7335;BME280;3708;42.632;23.378;2023-06-22T08:06:07;94814.38;;;30.78;37.13
7335;BME280;3708;42.632;23.378;2023-06-22T08:08:35;94813.53;;;31.40;36.69
7335;BME280;3708;42.632;23.378;2023-06-22T08:11:02;94797.16;;;31.10;36.88
7335;BME280;3708;42.632;23.378;2023-06-22T08:13:31;94795.13;;;31.70;35.98
7335;BME280;3708;42.632;23.378;2023-06-22T08:15:58;94800.31;;;31.42;35.71
7335;BME280;3708;42.632;23.378;2023-06-22T08:18:25;94799.53;;;31.54;35.61
7335;BME280;3708;42.632;23.378;2023-06-22T08:20:53;94786.88;;;31.73;36.18
7335;BME280;3708;42.632;23.378;2023-06-22T08:23:20;94800.66;;;32.09;35.23
7335;BME280;3708;42.632;23.378;2023-06-22T08:25:47;94783.66;;;31.87;35.47
7335;BME280;3708;42.632;23.378;2023-06-22T08:28:15;94788.47;;;31.15;36.46
7335;BME280;3708;42.632;23.378;2023-06-22T08:30:42;94785.34;;;31.04;36.63
7335;BME280;3708;42.632;23.378;2023-06-22T08:33:09;94791.88;;;30.68;36.98
7335;BME280;3708;42.632;23.378;2023-06-22T08:35:36;94772.44;;;31.20;36.11
7335;BME280;3708;42.632;23.378;2023-06-22T08:38:04;94773.53;;;31.79;34.81
7335;BME280;3708;42.632;23.378;2023-06-22T08:40:31;94790.53;;;32.01;34.96
7335;BME280;3708;42.632;23.378;2023-06-22T08:42:58;94787.41;;;32.02;34.42
7335;BME280;3708;42.632;23.378;2023-06-22T08:45:25;94783.31;;;31.98;34.50
7335;BME280;3708;42.632;23.378;2023-06-22T08:47:51;94792.91;;;32.20;34.97
7335;BME280;3708;42.632;23.378;2023-06-22T08:50:18;94785.75;;;32.35;36.14
7335;BME280;3708;42.632;23.378;2023-06-22T08:52:45;94789.44;;;32.51;35.24
7335;BME280;3708;42.632;23.378;2023-06-22T08:55:13;94792.88;;;32.82;35.48
7335;BME280;3708;42.632;23.378;2023-06-22T08:57:40;94791.66;;;32.83;36.52
7335;BME280;3708;42.632;23.378;2023-06-22T09:00:09;94785.03;;;32.44;35.74
7335;BME280;3708;42.632;23.378;2023-06-22T09:02:42;94787.25;;;32.37;35.21
7335;BME280;3708;42.632;23.378;2023-06-22T09:05:09;94780.81;;;32.43;36.78
7335;BME280;3708;42.632;23.378;2023-06-22T09:07:36;94773.69;;;32.76;36.16
7335;BME280;3708;42.632;23.378;2023-06-22T09:10:03;94766.59;;;33.19;34.96
7335;BME280;3708;42.632;23.378;2023-06-22T09:12:32;94766.13;;;33.29;34.60
7335;BME280;3708;42.632;23.378;2023-06-22T09:14:59;94769.75;;;33.44;35.28
7335;BME280;3708;42.632;23.378;2023-06-22T09:17:28;94768.53;;;33.91;34.66
7335;BME280;3708;42.632;23.378;2023-06-22T09:19:55;94766.75;;;33.69;34.60
7335;BME280;3708;42.632;23.378;2023-06-22T09:22:21;94764.63;;;34.01;33.79
7335;BME280;3708;42.632;23.378;2023-06-22T09:24:48;94762.41;;;34.32;32.57
7335;BME280;3708;42.632;23.378;2023-06-22T09:27:15;94769.56;;;34.20;32.88
7335;BME280;3708;42.632;23.378;2023-06-22T09:29:44;94762.63;;;34.10;32.52
7335;BME280;3708;42.632;23.378;2023-06-22T09:32:10;94763.66;;;34.22;33.24
7335;BME280;3708;42.632;23.378;2023-06-22T09:34:37;94774.41;;;34.58;31.94
7335;BME280;3708;42.632;23.378;2023-06-22T09:37:05;94779.78;;;32.98;31.29
7335;BME280;3708;42.632;23.378;2023-06-22T09:39:31;94777.75;;;32.32;33.05
7335;BME280;3708;42.632;23.378;2023-06-22T09:41:59;94781.06;;;32.05;33.21
7335;BME280;3708;42.632;23.378;2023-06-22T09:44:26;94778.25;;;32.09;32.37
7335;BME280;3708;42.632;23.378;2023-06-22T09:46:54;94779.09;;;31.41;34.42
7335;BME280;3708;42.632;23.378;2023-06-22T09:49:21;94769.50;;;31.62;32.95
7335;BME280;3708;42.632;23.378;2023-06-22T09:51:48;94772.19;;;32.35;32.69
7335;BME280;3708;42.632;23.378;2023-06-22T09:54:16;94769.44;;;31.74;32.48
7335;BME280;3708;42.632;23.378;2023-06-22T09:56:43;94776.28;;;32.09;32.25
7335;BME280;3708;42.632;23.378;2023-06-22T09:59:10;94767.16;;;32.25;31.59
7335;BME280;3708;42.632;23.378;2023-06-22T10:01:36;94760.78;;;31.88;31.90
7335;BME280;3708;42.632;23.378;2023-06-22T10:04:05;94757.09;;;32.25;32.22
7335;BME280;3708;42.632;23.378;2023-06-22T10:06:31;94760.25;;;32.64;31.61
7335;BME280;3708;42.632;23.378;2023-06-22T10:08:58;94759.16;;;31.69;31.82
7335;BME280;3708;42.632;23.378;2023-06-22T10:11:25;94758.38;;;32.43;32.22
7335;BME280;3708;42.632;23.378;2023-06-22T10:13:55;94752.84;;;33.22;30.88
7335;BME280;3708;42.632;23.378;2023-06-22T10:16:24;94749.97;;;33.71;29.91
7335;BME280;3708;42.632;23.378;2023-06-22T10:18:52;94753.69;;;34.10;30.75
7335;BME280;3708;42.632;23.378;2023-06-22T10:21:20;94752.34;;;34.47;30.31
7335;BME280;3708;42.632;23.378;2023-06-22T10:23:47;94741.94;;;34.04;29.92
7335;BME280;3708;42.632;23.378;2023-06-22T10:26:13;94744.88;;;34.33;30.01
7335;BME280;3708;42.632;23.378;2023-06-22T10:28:40;94746.00;;;34.59;29.96
7335;BME280;3708;42.632;23.378;2023-06-22T10:31:07;94754.78;;;35.10;29.29
7335;BME280;3708;42.632;23.378;2023-06-22T10:33:34;94742.84;;;35.46;26.73
7335;BME280;3708;42.632;23.378;2023-06-22T10:36:01;94740.84;;;35.56;26.66
7335;BME280;3708;42.632;23.378;2023-06-22T10:38:29;94740.84;;;35.85;25.97
7335;BME280;3708;42.632;23.378;2023-06-22T10:40:55;94735.31;;;35.94;26.11
7335;BME280;3708;42.632;23.378;2023-06-22T10:43:22;94734.41;;;36.12;26.88
7335;BME280;3708;42.632;23.378;2023-06-22T10:45:49;94733.81;;;35.93;27.33
7335;BME280;3708;42.632;23.378;2023-06-22T10:48:16;94734.38;;;35.30;28.17
7335;BME280;3708;42.632;23.378;2023-06-22T10:50:43;94731.53;;;35.91;27.32
7335;BME280;3708;42.632;23.378;2023-06-22T10:53:09;94730.72;;;36.29;27.47
7335;BME280;3708;42.632;23.378;2023-06-22T10:55:38;94720.66;;;36.70;26.71
7335;BME280;3708;42.632;23.378;2023-06-22T10:58:04;94728.84;;;37.05;25.28
7335;BME280;3708;42.632;23.378;2023-06-22T11:00:31;94727.38;;;37.29;25.75
7335;BME280;3708;42.632;23.378;2023-06-22T11:03:01;94730.53;;;37.02;25.22
7335;BME280;3708;42.632;23.378;2023-06-22T11:05:28;94733.56;;;34.67;27.86
7335;BME280;3708;42.632;23.378;2023-06-22T11:07:55;94726.34;;;35.11;28.18
7335;BME280;3708;42.632;23.378;2023-06-22T11:10:22;94726.69;;;35.43;27.31
7335;BME280;3708;42.632;23.378;2023-06-22T11:12:50;94727.34;;;34.67;27.67
7335;BME280;3708;42.632;23.378;2023-06-22T11:15:17;94724.31;;;34.32;28.11
7335;BME280;3708;42.632;23.378;2023-06-22T11:17:43;94718.63;;;34.63;28.11
7335;BME280;3708;42.632;23.378;2023-06-22T11:20:11;94717.84;;;35.33;27.56
7335;BME280;3708;42.632;23.378;2023-06-22T11:22:38;94713.84;;;35.43;27.66
7335;BME280;3708;42.632;23.378;2023-06-22T11:25:06;94712.75;;;35.79;28.14
7335;BME280;3708;42.632;23.378;2023-06-22T11:27:33;94713.16;;;36.01;27.60
7335;BME280;3708;42.632;23.378;2023-06-22T11:30:01;94705.88;;;36.27;27.48
7335;BME280;3708;42.632;23.378;2023-06-22T11:32:28;94704.50;;;36.87;26.81
7335;BME280;3708;42.632;23.378;2023-06-22T11:34:55;94707.50;;;37.29;25.80
7335;BME280;3708;42.632;23.378;2023-06-22T11:37:22;94705.66;;;37.66;23.69
7335;BME280;3708;42.632;23.378;2023-06-22T11:39:48;94694.75;;;36.31;24.12
7335;BME280;3708;42.632;23.378;2023-06-22T11:42:15;94704.50;;;36.52;24.69
7335;BME280;3708;42.632;23.378;2023-06-22T11:44:42;94693.69;;;36.78;25.18
7335;BME280;3708;42.632;23.378;2023-06-22T11:47:11;94693.03;;;37.23;24.67
7335;BME280;3708;42.632;23.378;2023-06-22T11:49:38;94696.56;;;37.75;23.86
7335;BME280;3708;42.632;23.378;2023-06-22T11:52:06;94691.47;;;37.88;23.53
7335;BME280;3708;42.632;23.378;2023-06-22T11:54:32;94679.78;;;38.18;23.62
7335;BME280;3708;42.632;23.378;2023-06-22T11:56:59;94679.22;;;38.09;22.76
7335;BME280;3708;42.632;23.378;2023-06-22T11:59:26;94681.44;;;38.42;22.94
7335;BME280;3708;42.632;23.378;2023-06-22T12:01:53;94684.56;;;38.60;22.66
7335;BME280;3708;42.632;23.378;2023-06-22T12:04:21;94682.50;;;38.13;23.10
7335;BME280;3708;42.632;23.378;2023-06-22T12:06:48;94686.13;;;38.72;22.14
7335;BME280;3708;42.632;23.378;2023-06-22T12:09:15;94690.16;;;38.77;22.29
7335;BME280;3708;42.632;23.378;2023-06-22T12:11:41;94684.75;;;38.51;23.08
7335;BME280;3708;42.632;23.378;2023-06-22T12:14:08;94684.16;;;38.36;22.71
7335;BME280;3708;42.632;23.378;2023-06-22T12:16:37;94684.78;;;38.57;22.41
7335;BME280;3708;42.632;23.378;2023-06-22T12:19:04;94686.38;;;38.01;22.92
7335;BME280;3708;42.632;23.378;2023-06-22T12:21:32;94693.78;;;37.69;23.93
7335;BME280;3708;42.632;23.378;2023-06-22T12:23:59;94695.72;;;36.97;27.06
7335;BME280;3708;42.632;23.378;2023-06-22T12:26:25;94694.00;;;36.30;28.79
7335;BME280;3708;42.632;23.378;2023-06-22T12:28:52;94700.34;;;35.78;29.66
7335;BME280;3708;42.632;23.378;2023-06-22T12:31:19;94709.41;;;35.07;30.97
7335;BME280;3708;42.632;23.378;2023-06-22T12:33:46;94705.22;;;33.99;33.13
7335;BME280;3708;42.632;23.378;2023-06-22T12:36:13;94705.03;;;33.43;34.51
7335;BME280;3708;42.632;23.378;2023-06-22T12:38:41;94712.03;;;32.68;35.41
7335;BME280;3708;42.632;23.378;2023-06-22T12:41:08;94731.69;;;32.01;37.14
7335;BME280;3708;42.632;23.378;2023-06-22T12:43:35;94748.19;;;31.73;38.09
7335;BME280;3708;42.632;23.378;2023-06-22T12:46:02;94749.91;;;30.76;41.69
7335;BME280;3708;42.632;23.378;2023-06-22T12:48:28;94755.78;;;30.37;43.10
7335;BME280;3708;42.632;23.378;2023-06-22T12:50:55;94758.00;;;30.26;43.52
7335;BME280;3708;42.632;23.378;2023-06-22T12:53:22;94765.44;;;29.97;43.48
7335;BME280;3708;42.632;23.378;2023-06-22T12:55:50;94768.84;;;29.44;46.28
7335;BME280;3708;42.632;23.378;2023-06-22T12:58:17;94761.41;;;29.19;46.40
7335;BME280;3708;42.632;23.378;2023-06-22T13:00:45;94771.88;;;28.68;46.81
7335;BME280;3708;42.632;23.378;2023-06-22T13:03:11;94775.53;;;28.42;47.68
7335;BME280;3708;42.632;23.378;2023-06-22T13:05:38;94781.00;;;28.39;48.88
7335;BME280;3708;42.632;23.378;2023-06-22T13:08:05;94779.34;;;27.89;51.68
7335;BME280;3708;42.632;23.378;2023-06-22T13:10:33;94771.34;;;27.86;50.07